createdAt,value
2019-05-19T00:04:05.655Z,12.64
2019-05-19T00:09:11.496Z,12.67
2019-05-19T00:14:17.363Z,12.52
2019-05-19T00:19:26.697Z,12.57
2019-05-19T00:24:30.472Z,12.84
2019-05-19T00:29:36.226Z,12.56
2019-05-19T00:34:41.783Z,12.56
2019-05-19T00:39:47.437Z,12.56
2019-05-19T00:44:55.820Z,12.38
2019-05-19T00:50:01.495Z,12.10
2019-05-19T00:55:07.692Z,11.80
2019-05-19T01:00:14.133Z,11.85
2019-05-19T01:05:20.769Z,11.81
2019-05-19T01:10:27.017Z,11.74
2019-05-19T01:15:34.186Z,12.07
2019-05-19T01:20:39.930Z,12.18
2019-05-19T01:25:45.921Z,12.40
2019-05-19T01:30:51.791Z,12.45
2019-05-19T01:35:57.431Z,12.41
2019-05-19T01:41:02.996Z,12.26
2019-05-19T01:46:09.369Z,11.54
2019-05-19T01:51:15.039Z,11.35
2019-05-19T01:56:20.538Z,10.91
2019-05-19T02:01:26.858Z,10.73
2019-05-19T02:06:32.404Z,10.48
2019-05-19T02:11:38.177Z,10.66
2019-05-19T02:16:44.936Z,10.87
2019-05-19T02:21:53.271Z,10.99
2019-05-19T02:26:58.993Z,11.13
2019-05-19T02:32:04.937Z,11.19
2019-05-19T02:37:10.675Z,11.28
2019-05-19T02:42:19.677Z,11.42
2019-05-19T02:47:27.150Z,11.51
2019-05-19T02:52:34.064Z,11.32
2019-05-19T02:57:41.338Z,11.24
2019-05-19T03:02:47.060Z,11.08
2019-05-19T03:07:52.443Z,10.97
2019-05-19T03:12:58.156Z,10.97
2019-05-19T03:18:03.979Z,10.83
2019-05-19T03:23:09.801Z,10.81
2019-05-19T03:28:15.528Z,10.75
2019-05-19T03:33:24.575Z,10.91
2019-05-19T03:38:30.320Z,10.82
2019-05-19T03:43:35.920Z,10.81
2019-05-19T03:48:42.287Z,11.03
2019-05-19T03:53:48.117Z,11.24
2019-05-19T03:58:53.686Z,11.36
2019-05-19T04:03:59.795Z,11.33
2019-05-19T04:09:07.067Z,11.44
2019-05-19T04:14:13.250Z,11.73
2019-05-19T04:19:18.904Z,11.85
2019-05-19T04:24:24.606Z,12.06
2019-05-19T04:29:30.186Z,12.33
2019-05-19T04:34:36.041Z,12.37
2019-05-19T04:39:41.572Z,12.51
2019-05-19T04:44:47.312Z,12.91
2019-05-19T04:49:53.177Z,13.09
2019-05-19T04:54:58.999Z,13.59
2019-05-19T05:00:04.628Z,14.09
2019-05-19T05:05:12.242Z,14.39
2019-05-19T05:10:17.932Z,15.02
2019-05-19T05:15:23.924Z,16.05
2019-05-19T05:20:31.273Z,17.05
2019-05-19T05:25:37.344Z,17.35
2019-05-19T05:30:43.957Z,18.59
2019-05-19T05:35:55.612Z,18.61
2019-05-19T05:41:04.343Z,19.04
2019-05-19T05:58:14.546Z,18.75
2019-05-19T06:04:24.859Z,19.28
2019-05-19T06:10:42.702Z,19.96
2019-05-19T06:16:36.760Z,19.55
2019-05-19T06:22:57.282Z,20.91
2019-05-19T06:48:14.846Z,20.39
2019-05-19T07:01:18.011Z,21.16
2019-05-19T07:19:41.878Z,21.21
2019-05-19T07:49:11.348Z,21.11
2019-05-19T08:01:10.006Z,21.50
2019-05-19T09:01:19.118Z,21.57
2019-05-19T09:12:51.737Z,22.21
2019-05-19T09:17:57.200Z,23.03
2019-05-19T09:28:34.374Z,23.30
2019-05-19T09:33:46.474Z,22.72
2019-05-19T09:38:54.316Z,22.99
2019-05-19T09:44:04.769Z,23.21
2019-05-19T09:49:29.366Z,23.08
2019-05-19T09:54:45.317Z,24.02
2019-05-19T09:59:46.226Z,24.28
2019-05-19T10:04:53.800Z,23.15
2019-05-19T10:10:06.074Z,22.79
2019-05-19T10:15:15.051Z,23.60
2019-05-19T10:25:47.363Z,23.83
2019-05-19T10:30:55.518Z,24.78
2019-05-19T10:41:40.823Z,24.79
2019-05-19T10:46:51.058Z,25.12
2019-05-19T10:51:58.343Z,25.43
2019-05-19T10:57:07.228Z,25.26
2019-05-19T11:02:21.553Z,25.05
2019-05-19T11:07:36.307Z,25.62
2019-05-19T11:12:54.484Z,25.26
2019-05-19T11:18:07.429Z,25.00
2019-05-19T11:23:35.309Z,25.17
2019-05-19T11:28:44.336Z,25.36
2019-05-19T11:39:43.466Z,24.77
2019-05-19T11:44:55.187Z,24.59
2019-05-19T11:50:23.382Z,24.39
2019-05-19T11:55:32.139Z,24.80
2019-05-19T12:00:41.616Z,25.11
2019-05-19T12:05:53.338Z,25.39
2019-05-19T12:11:02.915Z,24.98
2019-05-19T12:27:33.692Z,24.66
2019-05-19T12:32:45.808Z,24.38
2019-05-19T12:37:58.216Z,25.22
2019-05-19T12:43:06.172Z,25.01
2019-05-19T12:48:13.938Z,25.62
2019-05-19T12:53:22.460Z,24.53
2019-05-19T12:58:30.809Z,24.37
2019-05-19T13:03:44.264Z,24.37
2019-05-19T13:08:54.389Z,24.35
2019-05-19T13:19:59.875Z,24.97
2019-05-19T13:25:27.097Z,25.04
2019-05-19T13:30:43.522Z,24.30
2019-05-19T13:35:49.848Z,24.48
2019-05-19T13:40:57.047Z,25.11
2019-05-19T13:46:04.827Z,24.41
2019-05-19T13:51:15.539Z,24.40
2019-05-19T13:56:27.211Z,24.12
2019-05-19T14:01:32.894Z,24.11
2019-05-19T14:06:42.421Z,24.15
2019-05-19T14:11:59.930Z,24.50
2019-05-19T14:17:15.295Z,24.58
2019-05-19T14:22:25.441Z,24.11
2019-05-19T14:27:33.225Z,24.12
2019-05-19T14:32:42.025Z,24.43
2019-05-19T14:37:49.870Z,23.97
2019-05-19T14:48:22.057Z,24.31
2019-05-19T14:53:33.866Z,24.18
2019-05-19T14:58:40.359Z,24.26
2019-05-19T15:03:48.993Z,24.62
2019-05-19T15:14:33.460Z,24.48
2019-05-19T15:19:39.290Z,24.27
2019-05-19T15:30:27.021Z,24.85
2019-05-19T15:35:32.707Z,24.96
2019-05-19T15:40:42.458Z,24.94
2019-05-19T15:45:50.830Z,25.22
2019-05-19T15:51:04.693Z,24.81
2019-05-19T15:56:19.773Z,25.35
2019-05-19T16:07:02.012Z,24.89
2019-05-19T16:12:10.831Z,24.40
2019-05-19T16:17:24.384Z,24.54
2019-05-19T16:22:32.266Z,24.34
2019-05-19T16:27:39.477Z,24.18
2019-05-19T16:32:47.452Z,23.85
2019-05-19T16:37:53.231Z,23.61
2019-05-19T16:43:02.204Z,23.95
2019-05-19T16:48:19.651Z,23.95
2019-05-19T16:53:27.381Z,23.95
2019-05-19T16:58:44.900Z,23.95
2019-05-19T17:04:02.655Z,23.62
2019-05-19T17:14:38.249Z,23.12
2019-05-19T17:19:46.931Z,23.19
2019-05-19T17:24:52.856Z,22.87
2019-05-19T17:29:59.641Z,22.69
2019-05-19T17:35:08.064Z,22.47
2019-05-19T17:40:15.311Z,22.55
2019-05-19T17:45:24.896Z,22.46
2019-05-19T17:50:52.811Z,22.39
2019-05-19T17:56:00.471Z,22.32
2019-05-19T18:01:10.079Z,22.05
2019-05-19T18:06:21.760Z,22.02
2019-05-19T18:11:28.687Z,21.97
2019-05-19T18:21:46.143Z,21.67
2019-05-19T18:26:53.904Z,21.62
2019-05-19T18:31:59.829Z,21.43
2019-05-19T18:37:05.969Z,21.29
2019-05-19T18:42:13.796Z,21.05
2019-05-19T18:47:19.293Z,20.76
2019-05-19T18:52:24.717Z,20.54
2019-05-19T18:57:32.471Z,20.51
2019-05-19T19:02:38.132Z,20.40
2019-05-19T19:07:54.594Z,19.97
2019-05-19T19:12:59.875Z,19.70
2019-05-19T19:18:06.117Z,19.74
2019-05-19T19:23:11.477Z,19.63
2019-05-19T19:28:16.753Z,19.67
2019-05-19T19:33:22.141Z,19.66
2019-05-19T19:38:27.497Z,19.77
2019-05-19T19:43:32.795Z,19.62
2019-05-19T19:48:38.268Z,19.30
2019-05-19T19:53:43.519Z,19.07
2019-05-19T19:58:49.387Z,18.60
2019-05-19T20:03:55.064Z,18.88
2019-05-19T20:09:01.511Z,18.76
2019-05-19T20:14:19.527Z,18.81
2019-05-19T20:19:25.075Z,18.62
2019-05-19T20:24:30.344Z,18.29
2019-05-19T20:29:35.945Z,18.19
2019-05-19T20:34:41.290Z,18.09
2019-05-19T20:39:46.679Z,17.86
2019-05-19T20:44:53.339Z,17.69
2019-05-19T20:49:58.643Z,17.72
2019-05-19T20:55:03.885Z,17.61
2019-05-19T21:00:09.761Z,17.43
2019-05-19T21:05:16.728Z,17.18
2019-05-19T21:10:22.003Z,17.08
2019-05-19T21:15:27.321Z,16.76
2019-05-19T21:20:33.759Z,16.54
2019-05-19T21:25:38.976Z,16.71
2019-05-19T21:30:44.666Z,16.72
2019-05-19T21:35:50.909Z,16.73
2019-05-19T21:40:56.228Z,16.79
2019-05-19T21:46:01.478Z,17.24
2019-05-19T21:51:06.850Z,16.98
2019-05-19T21:56:12.057Z,16.80
2019-05-19T22:01:23.170Z,16.48
2019-05-19T22:06:27.178Z,16.36
2019-05-19T22:11:32.453Z,15.97
2019-05-19T22:16:37.642Z,15.66
2019-05-19T22:21:43.400Z,16.02
2019-05-19T22:26:48.756Z,16.45
2019-05-19T22:31:54.423Z,16.64
2019-05-19T22:37:00.675Z,16.86
2019-05-19T22:42:06.069Z,16.16
2019-05-19T22:47:11.555Z,15.62
2019-05-19T22:52:16.924Z,15.54
2019-05-19T22:57:22.127Z,15.49
2019-05-19T23:02:27.387Z,15.63
2019-05-19T23:07:32.543Z,15.64
2019-05-19T23:12:37.852Z,15.82
2019-05-19T23:17:43.385Z,15.64
2019-05-19T23:22:49.273Z,16.05
2019-05-19T23:27:54.500Z,15.84
2019-05-19T23:32:59.740Z,15.84
2019-05-19T23:38:04.932Z,16.15
2019-05-19T23:43:10.149Z,16.36
2019-05-19T23:48:16.932Z,16.57
2019-05-19T23:53:22.321Z,16.37
2019-05-19T23:58:27.572Z,16.00
